sensor_id;sensor_type;location;lat;lon;timestamp;temperature;humidity
5899;DHT22;2975;50.956;6.962;2024-03-06T04:48:52;6.70;99.90
5899;DHT22;2975;50.956;6.962;2024-03-06T04:51:18;6.80;99.90
5899;DHT22;2975;50.956;6.962;2024-03-06T04:53:47;6.80;99.90
5899;DHT22;2975;50.956;6.962;2024-03-06T10:12:48;9.80;99.90
5899;DHT22;2975;50.956;6.962;2024-03-06T10:15:15;9.90;99.90
5899;DHT22;2975;50.956;6.962;2024-03-06T10:17:42;9.90;99.90
5899;DHT22;2975;50.956;6.962;2024-03-06T10:20:24;9.90;99.90
5899;DHT22;2975;50.956;6.962;2024-03-06T10:22:51;10.00;99.90
5899;DHT22;2975;50.956;6.962;2024-03-06T10:25:22;10.10;99.90
5899;DHT22;2975;50.956;6.962;2024-03-06T10:28:08;10.20;99.90
5899;DHT22;2975;50.956;6.962;2024-03-06T10:30:39;10.20;99.90
5899;DHT22;2975;50.956;6.962;2024-03-06T10:33:14;10.20;99.90
5899;DHT22;2975;50.956;6.962;2024-03-06T10:35:43;9.80;99.90
5899;DHT22;2975;50.956;6.962;2024-03-06T10:46:00;10.60;99.90
5899;DHT22;2975;50.956;6.962;2024-03-06T10:50:55;10.70;99.90
5899;DHT22;2975;50.956;6.962;2024-03-06T10:53:23;10.90;99.90
5899;DHT22;2975;50.956;6.962;2024-03-06T10:55:52;11.20;99.90
5899;DHT22;2975;50.956;6.962;2024-03-06T11:00:51;11.50;99.90
5899;DHT22;2975;50.956;6.962;2024-03-06T11:05:45;10.60;99.90
5899;DHT22;2975;50.956;6.962;2024-03-06T11:08:17;11.80;99.90
5899;DHT22;2975;50.956;6.962;2024-03-06T11:10:43;11.80;99.90
5899;DHT22;2975;50.956;6.962;2024-03-06T11:13:21;12.10;99.90
5899;DHT22;2975;50.956;6.962;2024-03-06T11:31:02;13.00;99.90
5899;DHT22;2975;50.956;6.962;2024-03-06T11:33:44;12.80;99.90
5899;DHT22;2975;50.956;6.962;2024-03-06T11:36:29;12.80;99.90
5899;DHT22;2975;50.956;6.962;2024-03-06T11:44:14;12.30;99.90
5899;DHT22;2975;50.956;6.962;2024-03-06T11:46:50;12.30;99.90
5899;DHT22;2975;50.956;6.962;2024-03-06T11:49:24;12.10;99.90
5899;DHT22;2975;50.956;6.962;2024-03-06T11:51:52;12.10;99.90
5899;DHT22;2975;50.956;6.962;2024-03-06T11:54:25;12.10;99.90
5899;DHT22;2975;50.956;6.962;2024-03-06T11:57:01;12.40;99.90
5899;DHT22;2975;50.956;6.962;2024-03-06T11:59:35;12.40;99.90
5899;DHT22;2975;50.956;6.962;2024-03-06T12:02:07;12.30;99.90
5899;DHT22;2975;50.956;6.962;2024-03-06T12:04:37;12.30;99.90
5899;DHT22;2975;50.956;6.962;2024-03-06T12:07:04;12.40;99.90
5899;DHT22;2975;50.956;6.962;2024-03-06T12:09:33;12.10;99.90
5899;DHT22;2975;50.956;6.962;2024-03-06T12:11:59;12.00;99.90
5899;DHT22;2975;50.956;6.962;2024-03-06T12:14:25;12.00;99.90
5899;DHT22;2975;50.956;6.962;2024-03-06T12:17:03;11.80;99.90
5899;DHT22;2975;50.956;6.962;2024-03-06T12:19:36;11.80;99.90
5899;DHT22;2975;50.956;6.962;2024-03-06T12:22:03;11.80;99.90
5899;DHT22;2975;50.956;6.962;2024-03-06T12:27:03;11.90;99.90
5899;DHT22;2975;50.956;6.962;2024-03-06T12:29:31;12.20;99.90
5899;DHT22;2975;50.956;6.962;2024-03-06T12:32:00;12.70;99.90
5899;DHT22;2975;50.956;6.962;2024-03-06T12:34:27;12.20;99.90
5899;DHT22;2975;50.956;6.962;2024-03-06T12:36:52;12.00;99.90
5899;DHT22;2975;50.956;6.962;2024-03-06T12:39:18;11.80;99.90
5899;DHT22;2975;50.956;6.962;2024-03-06T12:41:49;11.70;99.90
5899;DHT22;2975;50.956;6.962;2024-03-06T12:44:14;11.70;99.90
5899;DHT22;2975;50.956;6.962;2024-03-06T12:46:40;13.00;99.90
5899;DHT22;2975;50.956;6.962;2024-03-06T12:49:06;11.90;99.90
5899;DHT22;2975;50.956;6.962;2024-03-06T12:51:35;12.10;99.90
5899;DHT22;2975;50.956;6.962;2024-03-06T12:54:01;12.10;99.90
5899;DHT22;2975;50.956;6.962;2024-03-06T12:56:27;12.40;99.90
5899;DHT22;2975;50.956;6.962;2024-03-06T12:58:57;12.40;99.90
5899;DHT22;2975;50.956;6.962;2024-03-06T13:01:23;12.50;99.90
5899;DHT22;2975;50.956;6.962;2024-03-06T13:03:48;12.30;99.90
5899;DHT22;2975;50.956;6.962;2024-03-06T13:06:14;12.30;99.90
5899;DHT22;2975;50.956;6.962;2024-03-06T13:08:40;12.20;99.90
5899;DHT22;2975;50.956;6.962;2024-03-06T13:11:06;12.20;99.90
5899;DHT22;2975;50.956;6.962;2024-03-06T13:13:32;12.20;99.90
5899;DHT22;2975;50.956;6.962;2024-03-06T13:15:59;12.30;99.90
5899;DHT22;2975;50.956;6.962;2024-03-06T13:18:25;12.30;99.90
5899;DHT22;2975;50.956;6.962;2024-03-06T13:20:51;12.30;99.90
5899;DHT22;2975;50.956;6.962;2024-03-06T13:23:18;12.40;99.90
5899;DHT22;2975;50.956;6.962;2024-03-06T13:25:44;12.30;99.90
5899;DHT22;2975;50.956;6.962;2024-03-06T13:28:11;12.20;99.90
5899;DHT22;2975;50.956;6.962;2024-03-06T13:30:37;12.30;99.90
5899;DHT22;2975;50.956;6.962;2024-03-06T13:33:04;12.30;99.90
5899;DHT22;2975;50.956;6.962;2024-03-06T13:35:30;12.60;99.90
5899;DHT22;2975;50.956;6.962;2024-03-06T13:37:56;12.50;99.90
5899;DHT22;2975;50.956;6.962;2024-03-06T13:40:21;12.50;99.90
5899;DHT22;2975;50.956;6.962;2024-03-06T13:42:47;12.60;99.90
5899;DHT22;2975;50.956;6.962;2024-03-06T13:45:13;12.80;99.90
5899;DHT22;2975;50.956;6.962;2024-03-06T13:47:43;12.70;99.90
5899;DHT22;2975;50.956;6.962;2024-03-06T13:50:16;12.70;99.90
5899;DHT22;2975;50.956;6.962;2024-03-06T13:52:42;12.80;99.90
5899;DHT22;2975;50.956;6.962;2024-03-06T13:55:08;12.60;99.90
5899;DHT22;2975;50.956;6.962;2024-03-06T13:57:36;12.50;99.90
5899;DHT22;2975;50.956;6.962;2024-03-06T14:00:03;12.50;99.90
5899;DHT22;2975;50.956;6.962;2024-03-06T14:02:31;12.50;99.90
5899;DHT22;2975;50.956;6.962;2024-03-06T14:04:57;12.50;99.90
5899;DHT22;2975;50.956;6.962;2024-03-06T14:07:23;12.50;99.90
5899;DHT22;2975;50.956;6.962;2024-03-06T14:09:50;12.50;99.90
5899;DHT22;2975;50.956;6.962;2024-03-06T14:12:16;12.30;99.90
5899;DHT22;2975;50.956;6.962;2024-03-06T14:14:42;12.10;99.90
5899;DHT22;2975;50.956;6.962;2024-03-06T14:17:14;12.00;99.90
5899;DHT22;2975;50.956;6.962;2024-03-06T14:19:40;12.00;99.90
5899;DHT22;2975;50.956;6.962;2024-03-06T14:22:06;12.00;99.90
5899;DHT22;2975;50.956;6.962;2024-03-06T14:24:34;11.90;99.90
5899;DHT22;2975;50.956;6.962;2024-03-06T14:27:02;11.90;99.90
5899;DHT22;2975;50.956;6.962;2024-03-06T14:29:29;11.90;99.90
5899;DHT22;2975;50.956;6.962;2024-03-06T14:31:55;11.90;99.90
5899;DHT22;2975;50.956;6.962;2024-03-06T14:34:23;11.80;99.90
5899;DHT22;2975;50.956;6.962;2024-03-06T14:36:52;11.90;99.90
5899;DHT22;2975;50.956;6.962;2024-03-06T14:39:19;11.90;99.90
5899;DHT22;2975;50.956;6.962;2024-03-06T14:41:47;12.00;99.90
5899;DHT22;2975;50.956;6.962;2024-03-06T14:44:13;12.20;99.90
5899;DHT22;2975;50.956;6.962;2024-03-06T14:46:40;12.50;99.90
5899;DHT22;2975;50.956;6.962;2024-03-06T14:51:34;12.70;94.00
5899;DHT22;2975;50.956;6.962;2024-03-06T14:54:00;12.80;94.40
5899;DHT22;2975;50.956;6.962;2024-03-06T14:56:26;12.80;94.50
5899;DHT22;2975;50.956;6.962;2024-03-06T14:58:52;12.80;94.50
5899;DHT22;2975;50.956;6.962;2024-03-06T15:01:18;12.80;94.50
5899;DHT22;2975;50.956;6.962;2024-03-06T15:03:44;12.80;94.70
5899;DHT22;2975;50.956;6.962;2024-03-06T15:06:14;12.90;94.90
5899;DHT22;2975;50.956;6.962;2024-03-06T15:08:40;13.00;94.80
5899;DHT22;2975;50.956;6.962;2024-03-06T15:11:06;13.20;94.30
5899;DHT22;2975;50.956;6.962;2024-03-06T15:13:33;13.40;94.00
5899;DHT22;2975;50.956;6.962;2024-03-06T15:16:00;13.50;94.00
5899;DHT22;2975;50.956;6.962;2024-03-06T15:18:26;13.50;93.80
5899;DHT22;2975;50.956;6.962;2024-03-06T15:20:51;13.60;94.20
5899;DHT22;2975;50.956;6.962;2024-03-06T15:23:17;13.80;94.20
5899;DHT22;2975;50.956;6.962;2024-03-06T15:25:43;13.90;94.10
5899;DHT22;2975;50.956;6.962;2024-03-06T15:28:12;14.00;93.70
5899;DHT22;2975;50.956;6.962;2024-03-06T15:30:38;14.10;93.10
5899;DHT22;2975;50.956;6.962;2024-03-06T15:33:04;14.20;93.10
5899;DHT22;2975;50.956;6.962;2024-03-06T15:35:30;14.20;92.50
5899;DHT22;2975;50.956;6.962;2024-03-06T15:37:56;14.40;92.20
5899;DHT22;2975;50.956;6.962;2024-03-06T15:40:22;14.20;92.50
5899;DHT22;2975;50.956;6.962;2024-03-06T15:42:50;14.20;92.80
5899;DHT22;2975;50.956;6.962;2024-03-06T15:45:16;14.10;93.00
5899;DHT22;2975;50.956;6.962;2024-03-06T15:47:42;14.20;92.90
5899;DHT22;2975;50.956;6.962;2024-03-06T15:50:14;14.10;92.80
5899;DHT22;2975;50.956;6.962;2024-03-06T15:52:41;14.20;92.80
5899;DHT22;2975;50.956;6.962;2024-03-06T15:55:08;14.00;93.10
5899;DHT22;2975;50.956;6.962;2024-03-06T15:57:36;13.90;93.10
5899;DHT22;2975;50.956;6.962;2024-03-06T16:00:04;13.80;93.60
5899;DHT22;2975;50.956;6.962;2024-03-06T16:02:30;13.70;93.80
5899;DHT22;2975;50.956;6.962;2024-03-06T16:04:56;13.60;94.20
5899;DHT22;2975;50.956;6.962;2024-03-06T16:07:21;13.40;94.40
5899;DHT22;2975;50.956;6.962;2024-03-06T16:09:47;13.30;94.50
5899;DHT22;2975;50.956;6.962;2024-03-06T16:12:16;13.20;94.70
5899;DHT22;2975;50.956;6.962;2024-03-06T16:14:41;13.20;95.70
5899;DHT22;2975;50.956;6.962;2024-03-06T16:17:07;13.10;96.10
5899;DHT22;2975;50.956;6.962;2024-03-06T16:19:34;13.20;96.30
5899;DHT22;2975;50.956;6.962;2024-03-06T16:22:00;13.00;96.50
5899;DHT22;2975;50.956;6.962;2024-03-06T16:24:27;12.80;96.80
5899;DHT22;2975;50.956;6.962;2024-03-06T16:26:54;12.80;97.00
5899;DHT22;2975;50.956;6.962;2024-03-06T16:29:20;12.60;97.70
5899;DHT22;2975;50.956;6.962;2024-03-06T16:31:46;12.50;98.10
5899;DHT22;2975;50.956;6.962;2024-03-06T16:34:11;12.30;99.30
5899;DHT22;2975;50.956;6.962;2024-03-06T16:36:37;12.10;99.90
5899;DHT22;2975;50.956;6.962;2024-03-06T16:39:05;12.00;99.90
5899;DHT22;2975;50.956;6.962;2024-03-06T16:41:31;11.90;99.90
5899;DHT22;2975;50.956;6.962;2024-03-06T16:43:57;11.80;99.90
5899;DHT22;2975;50.956;6.962;2024-03-06T16:46:22;11.80;99.90
5899;DHT22;2975;50.956;6.962;2024-03-06T16:48:53;11.80;99.90
5899;DHT22;2975;50.956;6.962;2024-03-06T16:51:19;11.70;99.90
5899;DHT22;2975;50.956;6.962;2024-03-06T16:53:47;11.70;99.90
5899;DHT22;2975;50.956;6.962;2024-03-06T16:56:13;11.70;99.90
5899;DHT22;2975;50.956;6.962;2024-03-06T16:58:40;11.70;99.90
5899;DHT22;2975;50.956;6.962;2024-03-06T17:01:05;11.60;99.90
5899;DHT22;2975;50.956;6.962;2024-03-06T17:03:31;11.60;99.90
5899;DHT22;2975;50.956;6.962;2024-03-06T17:05:57;11.50;99.90
5899;DHT22;2975;50.956;6.962;2024-03-06T17:08:22;11.50;99.90
5899;DHT22;2975;50.956;6.962;2024-03-06T17:10:48;11.40;99.90
5899;DHT22;2975;50.956;6.962;2024-03-06T17:13:14;11.40;99.90
5899;DHT22;2975;50.956;6.962;2024-03-06T17:15:39;11.50;99.90
5899;DHT22;2975;50.956;6.962;2024-03-06T17:18:07;11.40;99.90
5899;DHT22;2975;50.956;6.962;2024-03-06T17:20:34;11.40;99.90
5899;DHT22;2975;50.956;6.962;2024-03-06T17:22:59;11.40;99.90
5899;DHT22;2975;50.956;6.962;2024-03-06T17:25:27;11.40;99.90
5899;DHT22;2975;50.956;6.962;2024-03-06T17:27:53;11.30;99.90
5899;DHT22;2975;50.956;6.962;2024-03-06T17:30:19;11.20;99.90
5899;DHT22;2975;50.956;6.962;2024-03-06T17:32:44;11.20;99.90
5899;DHT22;2975;50.956;6.962;2024-03-06T17:35:10;11.20;99.90
5899;DHT22;2975;50.956;6.962;2024-03-06T17:37:37;11.20;99.90
5899;DHT22;2975;50.956;6.962;2024-03-06T17:40:04;11.20;99.90
5899;DHT22;2975;50.956;6.962;2024-03-06T17:42:30;11.20;99.90
5899;DHT22;2975;50.956;6.962;2024-03-06T17:44:56;11.10;99.90
5899;DHT22;2975;50.956;6.962;2024-03-06T17:47:22;11.10;99.90
5899;DHT22;2975;50.956;6.962;2024-03-06T17:49:47;11.10;99.90
5899;DHT22;2975;50.956;6.962;2024-03-06T17:52:14;11.10;99.90
5899;DHT22;2975;50.956;6.962;2024-03-06T17:54:43;11.00;99.90
5899;DHT22;2975;50.956;6.962;2024-03-06T17:57:15;11.00;99.90
5899;DHT22;2975;50.956;6.962;2024-03-06T17:59:41;11.00;99.90
5899;DHT22;2975;50.956;6.962;2024-03-06T18:02:07;11.00;99.90
5899;DHT22;2975;50.956;6.962;2024-03-06T18:04:32;11.10;99.90
5899;DHT22;2975;50.956;6.962;2024-03-06T18:06:58;11.00;99.90
5899;DHT22;2975;50.956;6.962;2024-03-06T18:09:24;11.10;99.90
5899;DHT22;2975;50.956;6.962;2024-03-06T18:11:51;11.10;99.90
5899;DHT22;2975;50.956;6.962;2024-03-06T18:14:18;11.00;99.90
5899;DHT22;2975;50.956;6.962;2024-03-06T18:16:43;11.00;99.90
5899;DHT22;2975;50.956;6.962;2024-03-06T18:19:12;11.00;99.90
5899;DHT22;2975;50.956;6.962;2024-03-06T18:21:44;11.00;99.90
5899;DHT22;2975;50.956;6.962;2024-03-06T18:24:10;11.00;99.90
5899;DHT22;2975;50.956;6.962;2024-03-06T18:26:40;11.00;99.90
5899;DHT22;2975;50.956;6.962;2024-03-06T18:29:06;10.90;99.90
5899;DHT22;2975;50.956;6.962;2024-03-06T18:31:33;11.00;99.90
5899;DHT22;2975;50.956;6.962;2024-03-06T18:33:59;11.10;99.90
5899;DHT22;2975;50.956;6.962;2024-03-06T18:36:25;11.00;99.90
5899;DHT22;2975;50.956;6.962;2024-03-06T18:38:50;10.90;99.90
5899;DHT22;2975;50.956;6.962;2024-03-06T18:41:16;10.80;99.90
5899;DHT22;2975;50.956;6.962;2024-03-06T18:43:42;10.80;99.90
5899;DHT22;2975;50.956;6.962;2024-03-06T18:46:08;10.70;99.90
5899;DHT22;2975;50.956;6.962;2024-03-06T18:48:34;10.70;99.90
5899;DHT22;2975;50.956;6.962;2024-03-06T18:50:59;10.70;99.90
5899;DHT22;2975;50.956;6.962;2024-03-06T18:53:25;10.70;99.90
5899;DHT22;2975;50.956;6.962;2024-03-06T18:55:51;10.70;99.90
5899;DHT22;2975;50.956;6.962;2024-03-06T18:58:16;10.70;99.90
5899;DHT22;2975;50.956;6.962;2024-03-06T19:00:42;10.60;99.90
5899;DHT22;2975;50.956;6.962;2024-03-06T19:03:08;10.60;99.90
5899;DHT22;2975;50.956;6.962;2024-03-06T19:05:33;10.50;99.90
5899;DHT22;2975;50.956;6.962;2024-03-06T19:08:00;10.50;99.90
5899;DHT22;2975;50.956;6.962;2024-03-06T19:10:27;10.40;99.90
5899;DHT22;2975;50.956;6.962;2024-03-06T19:12:53;10.40;99.90
5899;DHT22;2975;50.956;6.962;2024-03-06T19:15:19;10.30;99.90
5899;DHT22;2975;50.956;6.962;2024-03-06T19:17:44;10.20;99.90
5899;DHT22;2975;50.956;6.962;2024-03-06T19:20:10;10.10;99.90
5899;DHT22;2975;50.956;6.962;2024-03-06T19:22:38;10.00;99.90
5899;DHT22;2975;50.956;6.962;2024-03-06T19:25:06;9.90;99.90
5899;DHT22;2975;50.956;6.962;2024-03-06T19:27:37;9.80;99.90
5899;DHT22;2975;50.956;6.962;2024-03-06T19:30:06;9.60;99.90
5899;DHT22;2975;50.956;6.962;2024-03-06T19:32:37;9.70;99.90
5899;DHT22;2975;50.956;6.962;2024-03-06T19:35:05;9.60;99.90
5899;DHT22;2975;50.956;6.962;2024-03-06T19:37:32;9.50;99.90
5899;DHT22;2975;50.956;6.962;2024-03-06T19:40:00;9.40;99.90
5899;DHT22;2975;50.956;6.962;2024-03-06T19:42:26;9.40;99.90
5899;DHT22;2975;50.956;6.962;2024-03-06T19:44:52;9.30;99.90
5899;DHT22;2975;50.956;6.962;2024-03-06T19:47:17;9.20;99.90
5899;DHT22;2975;50.956;6.962;2024-03-06T19:49:43;9.20;99.90
5899;DHT22;2975;50.956;6.962;2024-03-06T19:52:10;9.20;99.90
5899;DHT22;2975;50.956;6.962;2024-03-06T19:54:37;9.20;99.90
5899;DHT22;2975;50.956;6.962;2024-03-06T19:57:04;9.20;99.90
5899;DHT22;2975;50.956;6.962;2024-03-06T19:59:32;9.10;99.90
5899;DHT22;2975;50.956;6.962;2024-03-06T20:01:58;9.10;99.90
5899;DHT22;2975;50.956;6.962;2024-03-06T20:04:24;9.20;99.90
5899;DHT22;2975;50.956;6.962;2024-03-06T20:06:49;9.10;99.90
5899;DHT22;2975;50.956;6.962;2024-03-06T20:09:15;9.20;99.90
5899;DHT22;2975;50.956;6.962;2024-03-06T20:11:41;9.00;99.90
5899;DHT22;2975;50.956;6.962;2024-03-06T20:14:07;8.90;99.90
5899;DHT22;2975;50.956;6.962;2024-03-06T20:16:34;8.90;99.90
5899;DHT22;2975;50.956;6.962;2024-03-06T20:19:00;8.90;99.90
5899;DHT22;2975;50.956;6.962;2024-03-06T20:21:25;8.80;99.90
5899;DHT22;2975;50.956;6.962;2024-03-06T20:23:51;8.80;99.90
5899;DHT22;2975;50.956;6.962;2024-03-06T20:28:43;8.50;99.90
5899;DHT22;2975;50.956;6.962;2024-03-06T20:31:10;8.60;99.90
5899;DHT22;2975;50.956;6.962;2024-03-06T20:33:36;8.50;99.90
5899;DHT22;2975;50.956;6.962;2024-03-06T20:36:02;8.60;99.90
5899;DHT22;2975;50.956;6.962;2024-03-06T20:38:30;8.60;99.90
5899;DHT22;2975;50.956;6.962;2024-03-06T20:40:56;8.40;99.90
5899;DHT22;2975;50.956;6.962;2024-03-06T20:43:22;8.40;99.90
5899;DHT22;2975;50.956;6.962;2024-03-06T20:45:47;8.30;99.90
5899;DHT22;2975;50.956;6.962;2024-03-06T20:48:15;8.20;99.90
5899;DHT22;2975;50.956;6.962;2024-03-06T20:50:41;8.70;99.90
5899;DHT22;2975;50.956;6.962;2024-03-06T20:53:07;8.20;99.90
5899;DHT22;2975;50.956;6.962;2024-03-06T20:55:34;8.20;99.90
5899;DHT22;2975;50.956;6.962;2024-03-06T20:57:59;8.20;99.90
5899;DHT22;2975;50.956;6.962;2024-03-06T21:00:25;8.30;99.90
5899;DHT22;2975;50.956;6.962;2024-03-06T21:02:51;8.10;99.90
5899;DHT22;2975;50.956;6.962;2024-03-06T21:05:17;8.00;99.90
5899;DHT22;2975;50.956;6.962;2024-03-06T21:07:43;8.00;99.90
5899;DHT22;2975;50.956;6.962;2024-03-06T21:10:09;7.80;99.90
5899;DHT22;2975;50.956;6.962;2024-03-06T21:12:36;7.90;99.90
5899;DHT22;2975;50.956;6.962;2024-03-06T21:15:01;7.80;99.90
5899;DHT22;2975;50.956;6.962;2024-03-06T21:17:27;7.70;99.90
5899;DHT22;2975;50.956;6.962;2024-03-06T21:19:53;7.60;99.90
5899;DHT22;2975;50.956;6.962;2024-03-06T21:22:20;7.60;99.90
5899;DHT22;2975;50.956;6.962;2024-03-06T21:24:50;7.50;99.90
5899;DHT22;2975;50.956;6.962;2024-03-06T21:27:16;7.90;99.90
5899;DHT22;2975;50.956;6.962;2024-03-06T21:29:45;7.60;99.90
5899;DHT22;2975;50.956;6.962;2024-03-06T21:32:11;6.60;99.90
5899;DHT22;2975;50.956;6.962;2024-03-06T21:34:37;7.90;99.90
5899;DHT22;2975;50.956;6.962;2024-03-06T21:37:02;6.80;99.90
5899;DHT22;2975;50.956;6.962;2024-03-06T21:39:29;7.30;99.90
5899;DHT22;2975;50.956;6.962;2024-03-06T21:41:54;7.10;99.90
5899;DHT22;2975;50.956;6.962;2024-03-06T21:44:20;7.00;99.90
5899;DHT22;2975;50.956;6.962;2024-03-06T21:46:48;6.90;99.90
5899;DHT22;2975;50.956;6.962;2024-03-06T21:49:13;6.80;99.90
5899;DHT22;2975;50.956;6.962;2024-03-06T21:51:39;6.80;99.90
5899;DHT22;2975;50.956;6.962;2024-03-06T21:54:04;6.90;99.90
5899;DHT22;2975;50.956;6.962;2024-03-06T21:56:31;7.00;99.90
5899;DHT22;2975;50.956;6.962;2024-03-06T21:58:58;7.00;99.90
5899;DHT22;2975;50.956;6.962;2024-03-06T22:01:24;6.90;99.90
5899;DHT22;2975;50.956;6.962;2024-03-06T22:03:49;6.90;99.90
5899;DHT22;2975;50.956;6.962;2024-03-06T22:06:15;6.70;99.90
5899;DHT22;2975;50.956;6.962;2024-03-06T22:08:41;6.70;99.90
5899;DHT22;2975;50.956;6.962;2024-03-06T22:11:08;6.60;99.90
5899;DHT22;2975;50.956;6.962;2024-03-06T22:13:34;6.60;99.90
5899;DHT22;2975;50.956;6.962;2024-03-06T22:16:00;6.50;99.90
5899;DHT22;2975;50.956;6.962;2024-03-06T22:18:25;6.50;99.90
5899;DHT22;2975;50.956;6.962;2024-03-06T22:20:51;6.40;99.90
5899;DHT22;2975;50.956;6.962;2024-03-06T22:23:18;6.30;99.90
5899;DHT22;2975;50.956;6.962;2024-03-06T22:25:44;6.30;99.90
5899;DHT22;2975;50.956;6.962;2024-03-06T22:28:09;6.30;99.90
5899;DHT22;2975;50.956;6.962;2024-03-06T22:30:38;6.20;99.90
5899;DHT22;2975;50.956;6.962;2024-03-06T22:33:06;6.10;99.90
5899;DHT22;2975;50.956;6.962;2024-03-06T22:35:33;6.10;99.90
5899;DHT22;2975;50.956;6.962;2024-03-06T22:37:59;6.10;99.90
5899;DHT22;2975;50.956;6.962;2024-03-06T22:40:27;6.10;99.90
5899;DHT22;2975;50.956;6.962;2024-03-06T22:42:58;6.20;99.90
5899;DHT22;2975;50.956;6.962;2024-03-06T22:45:23;6.10;99.90
5899;DHT22;2975;50.956;6.962;2024-03-06T22:47:50;6.10;99.90
5899;DHT22;2975;50.956;6.962;2024-03-06T22:50:16;6.00;99.90
5899;DHT22;2975;50.956;6.962;2024-03-06T22:52:42;6.00;99.90
5899;DHT22;2975;50.956;6.962;2024-03-06T22:55:08;6.00;99.90
5899;DHT22;2975;50.956;6.962;2024-03-06T22:57:33;6.00;99.90
5899;DHT22;2975;50.956;6.962;2024-03-06T22:59:59;6.00;99.90
5899;DHT22;2975;50.956;6.962;2024-03-06T23:02:25;6.00;99.90
5899;DHT22;2975;50.956;6.962;2024-03-06T23:04:51;6.00;99.90
5899;DHT22;2975;50.956;6.962;2024-03-06T23:07:18;6.00;99.90
5899;DHT22;2975;50.956;6.962;2024-03-06T23:09:44;5.80;99.90
5899;DHT22;2975;50.956;6.962;2024-03-06T23:12:11;5.70;99.90
5899;DHT22;2975;50.956;6.962;2024-03-06T23:14:36;5.70;99.90
5899;DHT22;2975;50.956;6.962;2024-03-06T23:17:05;5.70;99.90
5899;DHT22;2975;50.956;6.962;2024-03-06T23:19:31;5.70;99.90
5899;DHT22;2975;50.956;6.962;2024-03-06T23:21:56;5.60;99.90
5899;DHT22;2975;50.956;6.962;2024-03-06T23:24:23;5.50;99.90
5899;DHT22;2975;50.956;6.962;2024-03-06T23:26:49;5.50;99.90
5899;DHT22;2975;50.956;6.962;2024-03-06T23:29:15;5.50;99.90
5899;DHT22;2975;50.956;6.962;2024-03-06T23:31:41;5.50;99.90
5899;DHT22;2975;50.956;6.962;2024-03-06T23:34:10;5.50;99.90
5899;DHT22;2975;50.956;6.962;2024-03-06T23:36:36;5.50;99.90
5899;DHT22;2975;50.956;6.962;2024-03-06T23:39:02;5.60;99.90
5899;DHT22;2975;50.956;6.962;2024-03-06T23:41:28;5.60;99.90
5899;DHT22;2975;50.956;6.962;2024-03-06T23:43:55;5.60;99.90
5899;DHT22;2975;50.956;6.962;2024-03-06T23:46:21;5.50;99.90
5899;DHT22;2975;50.956;6.962;2024-03-06T23:48:47;5.50;99.90
5899;DHT22;2975;50.956;6.962;2024-03-06T23:51:12;5.50;99.90
5899;DHT22;2975;50.956;6.962;2024-03-06T23:53:38;5.50;99.90
5899;DHT22;2975;50.956;6.962;2024-03-06T23:56:04;5.40;99.90
5899;DHT22;2975;50.956;6.962;2024-03-06T23:58:29;5.40;99.90
